createdAt,value
2018-07-21T00:02:13.738Z,95070.06
2018-07-21T00:04:43.759Z,95059.54
2018-07-21T00:07:13.721Z,95062.64
2018-07-21T00:09:43.794Z,95060.00
2018-07-21T00:12:13.823Z,95053.51
2018-07-21T00:14:44.254Z,95052.80
2018-07-21T00:17:14.235Z,95048.54
2018-07-21T00:19:44.274Z,95049.88
2018-07-21T00:22:14.310Z,95046.77
2018-07-21T00:24:44.402Z,95049.13
2018-07-21T00:27:14.404Z,95049.13
2018-07-21T00:29:44.470Z,95047.25
2018-07-21T00:32:14.526Z,95041.69
2018-07-21T00:34:44.651Z,95044.08
2018-07-21T00:37:14.827Z,95040.59
2018-07-21T00:39:44.935Z,95037.39
2018-07-21T00:42:15.083Z,95032.81
2018-07-21T00:44:45.206Z,95040.05
2018-07-21T00:47:15.205Z,95035.92
2018-07-21T00:49:45.254Z,95034.70
2018-07-21T00:52:15.236Z,95023.94
2018-07-21T00:54:45.304Z,95029.62
2018-07-21T00:57:15.420Z,95028.52
2018-07-21T00:59:45.513Z,95027.65
2018-07-21T01:02:15.538Z,95028.72
2018-07-21T01:04:45.565Z,95034.08
2018-07-21T01:07:15.591Z,95040.24
2018-07-21T01:09:45.695Z,95041.60
2018-07-21T01:12:15.276Z,95045.06
2018-07-21T01:14:45.299Z,95047.06
2018-07-21T01:17:15.377Z,95039.63
2018-07-21T01:19:45.378Z,95045.06
2018-07-21T01:22:15.392Z,95036.05
2018-07-21T01:24:45.470Z,95041.64
2018-07-21T01:27:15.448Z,95039.89
2018-07-21T01:29:45.496Z,95029.76
2018-07-21T01:32:15.479Z,95031.98
2018-07-21T01:34:45.469Z,95034.77
2018-07-21T01:37:15.101Z,95040.02
2018-07-21T01:39:45.072Z,95033.86
2018-07-21T01:42:15.063Z,95031.41
2018-07-21T01:44:45.096Z,95027.98
2018-07-21T01:47:15.094Z,95028.50
2018-07-21T01:49:45.116Z,95031.27
2018-07-21T01:52:15.127Z,95021.14
2018-07-21T01:54:45.137Z,95027.27
2018-07-21T01:57:15.135Z,95023.50
2018-07-21T01:59:44.821Z,95029.63
2018-07-21T02:02:14.821Z,95020.33
2018-07-21T02:04:44.842Z,95010.48
2018-07-21T02:07:14.835Z,95012.48
2018-07-21T02:09:44.804Z,95009.39
2018-07-21T02:12:14.802Z,95007.76
2018-07-21T02:14:44.860Z,95010.91
2018-07-21T02:17:14.878Z,95011.30
2018-07-21T02:19:44.888Z,95005.88
2018-07-21T02:22:14.893Z,95003.09
2018-07-21T02:24:45.045Z,95002.95
2018-07-21T02:27:15.032Z,95007.01
2018-07-21T02:29:45.071Z,95003.50
2018-07-21T02:32:15.057Z,95007.19
2018-07-21T02:34:45.155Z,95001.22
2018-07-21T02:37:14.765Z,95010.75
2018-07-21T02:39:45.409Z,95005.94
2018-07-21T02:42:15.402Z,95003.10
2018-07-21T02:44:45.375Z,94995.59
2018-07-21T02:47:15.422Z,94999.47
2018-07-21T02:49:45.547Z,94999.03
2018-07-21T02:52:15.518Z,95000.75
2018-07-21T02:54:45.917Z,95002.27
2018-07-21T02:57:15.724Z,94996.28
2018-07-21T02:59:45.965Z,94999.84
2018-07-21T03:02:15.672Z,94996.83
2018-07-21T03:04:45.660Z,94990.38
2018-07-21T03:07:15.677Z,94998.54
2018-07-21T03:09:45.725Z,95000.28
2018-07-21T03:12:15.747Z,95000.55
2018-07-21T03:14:45.749Z,95004.97
2018-07-21T03:17:15.751Z,95012.41
2018-07-21T03:19:45.745Z,95020.80
2018-07-21T03:22:15.765Z,95027.52
2018-07-21T03:24:45.827Z,95027.97
2018-07-21T03:27:15.932Z,95022.96
2018-07-21T03:29:45.935Z,95030.88
2018-07-21T03:32:15.925Z,95034.94
2018-07-21T03:34:45.590Z,95033.68
2018-07-21T03:37:15.600Z,95041.02
2018-07-21T03:39:45.547Z,95038.17
2018-07-21T03:42:15.581Z,95030.47
2018-07-21T03:44:45.539Z,95036.50
2018-07-21T03:47:15.547Z,95037.61
2018-07-21T03:49:45.125Z,95038.97
2018-07-21T03:52:15.225Z,95045.45
2018-07-21T03:54:45.312Z,95043.34
2018-07-21T03:57:15.318Z,95040.09
2018-07-21T03:59:45.290Z,95044.11
2018-07-21T04:02:15.293Z,95041.45
2018-07-21T04:04:45.319Z,95046.39
2018-07-21T04:07:15.304Z,95045.72
2018-07-21T04:09:45.307Z,95039.74
2018-07-21T04:12:15.339Z,95050.73
2018-07-21T04:14:45.337Z,95048.22
2018-07-21T04:17:22.896Z,95056.44
2018-07-21T04:19:53.047Z,95052.69
2018-07-21T04:22:23.778Z,95056.22
2018-07-21T04:24:53.954Z,95055.77
2018-07-21T04:27:24.823Z,95063.30
2018-07-21T04:29:55.010Z,95060.09
2018-07-21T04:32:25.199Z,95069.28
2018-07-21T04:34:55.216Z,95062.06
2018-07-21T04:37:25.247Z,95064.27
2018-07-21T04:39:55.260Z,95069.40
2018-07-21T04:42:25.278Z,95070.28
2018-07-21T04:44:55.751Z,95071.05
2018-07-21T04:47:25.510Z,95070.02
2018-07-21T04:49:55.502Z,95068.27
2018-07-21T04:52:25.640Z,95069.66
2018-07-21T04:54:55.650Z,95065.84
2018-07-21T04:57:25.804Z,95066.38
2018-07-21T04:59:55.912Z,95065.61
2018-07-21T05:02:26.040Z,95070.90
2018-07-21T05:04:56.034Z,95072.98
2018-07-21T05:07:25.814Z,95074.06
2018-07-21T05:09:55.945Z,95076.42
2018-07-21T05:12:26.053Z,95071.78
2018-07-21T05:14:56.132Z,95085.75
2018-07-21T05:17:26.291Z,95088.95
2018-07-21T05:19:56.378Z,95087.69
2018-07-21T05:22:26.529Z,95094.40
2018-07-21T05:24:56.534Z,95093.82
2018-07-21T05:27:26.814Z,95095.71
2018-07-21T05:29:56.868Z,95100.77
2018-07-21T05:32:27.059Z,95109.88
2018-07-21T05:34:57.042Z,95116.71
2018-07-21T05:37:27.210Z,95104.82
2018-07-21T05:39:57.246Z,95106.67
2018-07-21T05:42:27.398Z,95099.69
2018-07-21T05:44:57.446Z,95105.41
2018-07-21T05:47:27.552Z,95110.22
2018-07-21T05:49:57.548Z,95110.80
2018-07-21T05:52:27.716Z,95111.58
2018-07-21T05:54:57.768Z,95117.64
2018-07-21T05:57:27.518Z,95119.76
2018-07-21T05:59:57.522Z,95116.21
2018-07-21T06:02:27.651Z,95118.48
2018-07-21T06:04:57.943Z,95115.75
2018-07-21T06:07:27.785Z,95116.75
2018-07-21T06:09:57.947Z,95116.48
2018-07-21T06:12:28.288Z,95117.67
2018-07-21T06:14:58.528Z,95125.20
2018-07-21T06:17:28.766Z,95128.20
2018-07-21T06:19:58.877Z,95126.86
2018-07-21T06:22:29.127Z,95128.13
2018-07-21T06:24:59.183Z,95128.87
2018-07-21T06:27:29.399Z,95130.83
2018-07-21T06:29:59.497Z,95131.92
2018-07-21T06:32:29.305Z,95129.67
2018-07-21T06:34:59.401Z,95130.94
2018-07-21T06:37:29.670Z,95124.34
2018-07-21T06:39:59.412Z,95133.03
2018-07-21T06:42:29.769Z,95129.24
2018-07-21T06:45:01.093Z,95127.30
2018-07-21T06:47:31.279Z,95130.59
2018-07-21T06:50:00.950Z,95133.59
2018-07-21T06:52:31.074Z,95144.59
2018-07-21T06:55:01.160Z,95130.75
2018-07-21T06:57:31.320Z,95133.17
2018-07-21T07:00:01.402Z,95137.31
2018-07-21T07:02:31.648Z,95138.53
2018-07-21T07:05:02.173Z,95140.58
2018-07-21T07:07:32.475Z,95139.29
2018-07-21T07:10:02.606Z,95150.15
2018-07-21T07:12:32.764Z,95142.30
2018-07-21T07:15:02.908Z,95150.15
2018-07-21T07:17:33.371Z,95145.55
2018-07-21T07:20:03.478Z,95155.09
2018-07-21T07:22:33.804Z,95152.58
2018-07-21T07:25:03.526Z,95157.41
2018-07-21T07:27:33.614Z,95160.28
2018-07-21T07:30:03.847Z,95159.53
2018-07-21T07:32:34.207Z,95160.87
2018-07-21T07:35:03.889Z,95163.72
2018-07-21T07:37:34.158Z,95167.04
2018-07-21T07:40:04.379Z,95175.70
2018-07-21T07:42:34.268Z,95166.92
2018-07-21T07:45:04.447Z,95170.79
2018-07-21T07:47:34.727Z,95167.42
2018-07-21T07:50:05.922Z,95166.83
2018-07-21T07:52:36.281Z,95175.80
2018-07-21T07:55:06.448Z,95173.45
2018-07-21T07:57:36.884Z,95167.27
2018-07-21T08:00:06.768Z,95166.69
2018-07-21T08:02:37.089Z,95171.92
2018-07-21T08:05:08.439Z,95168.77
2018-07-21T08:07:38.739Z,95172.83
2018-07-21T08:10:08.835Z,95178.36
2018-07-21T08:12:39.077Z,95175.45
2018-07-21T08:15:09.246Z,95181.86
2018-07-21T08:17:39.459Z,95177.07
2018-07-21T08:20:09.666Z,95183.12
2018-07-21T08:22:40.776Z,95179.51
2018-07-21T08:25:10.502Z,95184.31
2018-07-21T08:27:40.573Z,95184.09
2018-07-21T08:30:11.907Z,95180.56
2018-07-21T08:32:42.441Z,95181.39
2018-07-21T08:35:12.573Z,95191.98
2018-07-21T08:37:42.630Z,95189.68
2018-07-21T08:40:12.805Z,95190.53
2018-07-21T08:42:42.868Z,95194.69
2018-07-21T08:45:13.036Z,95191.12
2018-07-21T08:47:43.111Z,95196.03
2018-07-21T08:50:13.290Z,95191.93
2018-07-21T08:52:43.312Z,95199.88
2018-07-21T08:55:13.388Z,95194.73
2018-07-21T08:57:43.454Z,95193.03
2018-07-21T09:00:13.683Z,95189.92
2018-07-21T09:02:43.646Z,95191.97
2018-07-21T09:05:13.666Z,95203.83
2018-07-21T09:07:43.836Z,95198.30
2018-07-21T09:10:13.976Z,95195.83
2018-07-21T09:12:43.985Z,95187.84
2018-07-21T09:15:14.098Z,95189.78
2018-07-21T09:17:45.995Z,95195.06
2018-07-21T09:20:17.152Z,95194.88
2018-07-21T09:22:47.620Z,95191.64
2018-07-21T09:25:17.741Z,95199.45
2018-07-21T09:27:47.755Z,95200.31
2018-07-21T09:30:17.935Z,95202.92
2018-07-21T09:32:48.013Z,95204.38
2018-07-21T09:35:18.199Z,95202.73
2018-07-21T09:37:48.265Z,95211.64
2018-07-21T09:40:18.828Z,95208.69
2018-07-21T09:42:49.091Z,95213.39
2018-07-21T09:45:19.240Z,95212.70
2018-07-21T09:47:49.378Z,95215.24
2018-07-21T09:50:19.639Z,95217.13
2018-07-21T09:52:49.804Z,95221.83
2018-07-21T09:55:19.925Z,95226.15
2018-07-21T09:57:50.257Z,95225.48
2018-07-21T10:00:25.541Z,95221.78
2018-07-21T10:02:55.691Z,95226.78
2018-07-21T10:05:26.027Z,95227.14
2018-07-21T10:07:56.335Z,95229.53
2018-07-21T10:10:26.963Z,95232.32
2018-07-21T10:12:57.192Z,95234.53
2018-07-21T10:15:27.655Z,95234.53
2018-07-21T10:17:57.839Z,95232.32
2018-07-21T10:20:28.013Z,95231.34
2018-07-21T10:22:58.207Z,95229.94
2018-07-21T10:25:33.456Z,95235.85
2018-07-21T10:28:08.694Z,95231.84
2018-07-21T10:30:38.844Z,95231.11
2018-07-21T10:33:08.635Z,95230.80
2018-07-21T10:35:38.751Z,95236.13
2018-07-21T10:38:09.339Z,95236.66
2018-07-21T10:40:39.373Z,95235.29
2018-07-21T10:43:09.454Z,95234.99
2018-07-21T10:45:39.482Z,95236.83
2018-07-21T10:48:09.933Z,95235.47
2018-07-21T10:50:40.069Z,95239.56
2018-07-21T10:53:10.167Z,95239.86
2018-07-21T10:55:40.182Z,95240.82
2018-07-21T10:58:10.283Z,95249.39
2018-07-21T11:00:40.361Z,95241.48
2018-07-21T11:03:10.494Z,95243.40
2018-07-21T11:05:40.563Z,95240.42
2018-07-21T11:08:10.968Z,95239.93
2018-07-21T11:10:40.967Z,95239.96
2018-07-21T11:13:11.070Z,95239.31
2018-07-21T11:15:42.238Z,95232.20
2018-07-21T11:18:12.373Z,95234.00
2018-07-21T11:20:42.486Z,95237.12
2018-07-21T11:23:12.565Z,95232.38
2018-07-21T11:25:42.677Z,95235.46
2018-07-21T11:28:13.231Z,95233.34
2018-07-21T11:30:43.253Z,95234.12
2018-07-21T11:33:12.939Z,95234.27
2018-07-21T11:35:43.338Z,95235.84
2018-07-21T11:38:12.949Z,95237.24
2018-07-21T11:40:51.881Z,95228.30
2018-07-21T11:43:22.018Z,95240.27
2018-07-21T11:45:52.138Z,95231.06
2018-07-21T11:48:22.286Z,95231.17
2018-07-21T11:50:52.419Z,95235.80
2018-07-21T11:53:23.496Z,95232.16
2018-07-21T11:55:53.665Z,95232.54
2018-07-21T11:58:23.937Z,95229.66
2018-07-21T12:00:54.318Z,95231.30
2018-07-21T12:03:24.456Z,95234.80
2018-07-21T12:05:54.533Z,95228.02
2018-07-21T12:08:24.683Z,95232.45
2018-07-21T12:10:55.761Z,95229.84
2018-07-21T12:13:25.976Z,95227.13
2018-07-21T12:15:56.059Z,95226.63
2018-07-21T12:18:26.206Z,95220.22
2018-07-21T12:20:57.407Z,95220.34
2018-07-21T12:23:27.586Z,95213.66
2018-07-21T12:25:57.770Z,95219.60
2018-07-21T12:28:29.381Z,95217.38
2018-07-21T12:30:59.501Z,95211.88
2018-07-21T12:33:29.582Z,95209.80
2018-07-21T12:35:59.699Z,95208.46
2018-07-21T12:38:29.956Z,95211.98
2018-07-21T12:41:00.161Z,95211.73
2018-07-21T12:43:30.255Z,95212.92
2018-07-21T12:46:00.376Z,95208.05
2018-07-21T12:48:30.524Z,95204.73
2018-07-21T12:51:00.595Z,95207.67
2018-07-21T12:53:30.726Z,95203.08
2018-07-21T12:56:00.826Z,95216.16
2018-07-21T12:58:31.223Z,95210.09
2018-07-21T13:01:01.319Z,95206.72
2018-07-21T13:03:31.426Z,95207.53
2018-07-21T13:06:01.150Z,95201.84
2018-07-21T13:08:31.299Z,95203.78
2018-07-21T13:11:01.412Z,95205.94
2018-07-21T13:13:31.516Z,95194.22
2018-07-21T13:16:01.239Z,95193.38
2018-07-21T13:18:31.317Z,95196.66
2018-07-21T13:21:01.539Z,95196.36
2018-07-21T13:23:31.702Z,95196.80
2018-07-21T13:26:02.180Z,95198.63
2018-07-21T13:28:32.709Z,95200.18
2018-07-21T13:31:02.856Z,95199.02
2018-07-21T13:33:33.013Z,95198.20
2018-07-21T13:36:03.157Z,95203.78
2018-07-21T13:38:33.267Z,95202.70
2018-07-21T13:41:03.362Z,95201.13
2018-07-21T13:43:33.415Z,95203.89
2018-07-21T13:46:03.738Z,95204.67
2018-07-21T13:48:33.799Z,95205.42
2018-07-21T13:51:03.961Z,95205.37
2018-07-21T13:53:34.043Z,95201.47
2018-07-21T13:56:04.182Z,95208.97
2018-07-21T13:58:34.300Z,95203.06
2018-07-21T14:01:04.416Z,95204.44
2018-07-21T14:03:34.444Z,95200.51
2018-07-21T14:06:04.609Z,95201.38
2018-07-21T14:08:34.643Z,95197.69
2018-07-21T14:11:04.755Z,95193.13
2018-07-21T14:13:34.779Z,95192.81
2018-07-21T14:16:04.914Z,95195.08
2018-07-21T14:18:35.147Z,95194.85
2018-07-21T14:21:05.295Z,95188.73
2018-07-21T14:23:35.349Z,95185.08
2018-07-21T14:26:05.498Z,95157.48
2018-07-21T14:28:35.550Z,95186.44
2018-07-21T14:31:05.630Z,95189.41
2018-07-21T14:33:35.675Z,95190.00
2018-07-21T14:36:06.053Z,95191.74
2018-07-21T14:38:36.175Z,95197.89
2018-07-21T14:41:06.500Z,95197.79
2018-07-21T14:43:36.613Z,95202.32
2018-07-21T14:46:06.829Z,95200.52
2018-07-21T14:48:37.013Z,95196.25
2018-07-21T14:51:07.144Z,95201.16
2018-07-21T14:53:37.218Z,95204.65
2018-07-21T14:56:07.420Z,95204.55
2018-07-21T14:58:37.528Z,95207.84
2018-07-21T15:01:07.853Z,95206.10
2018-07-21T15:03:37.990Z,95208.98
2018-07-21T15:06:09.985Z,95213.89
2018-07-21T15:08:40.077Z,95214.73
2018-07-21T15:11:10.198Z,95217.90
2018-07-21T15:13:40.343Z,95217.13
2018-07-21T15:16:10.575Z,95216.98
2018-07-21T15:18:40.698Z,95211.46
2018-07-21T15:21:10.830Z,95213.57
2018-07-21T15:23:40.554Z,95218.03
2018-07-21T15:26:10.673Z,95213.19
2018-07-21T15:28:40.786Z,95214.05
2018-07-21T15:31:11.228Z,95214.48
2018-07-21T15:33:41.265Z,95220.08
2018-07-21T15:36:10.951Z,95221.91
2018-07-21T15:38:40.983Z,95220.48
2018-07-21T15:41:11.055Z,95220.33
2018-07-21T15:43:41.090Z,95230.18
2018-07-21T15:46:11.295Z,95221.41
2018-07-21T15:48:41.335Z,95236.57
2018-07-21T15:51:11.503Z,95229.16
2018-07-21T15:53:41.822Z,95231.97
2018-07-21T15:56:11.926Z,95227.54
2018-07-21T15:58:42.065Z,95226.80
2018-07-21T16:01:12.198Z,95228.36
2018-07-21T16:03:42.324Z,95231.29
2018-07-21T16:06:12.425Z,95233.12
2018-07-21T16:08:43.516Z,95234.84
2018-07-21T16:11:13.611Z,95233.40
2018-07-21T16:13:49.314Z,95229.45
2018-07-21T16:16:21.432Z,95229.16
2018-07-21T16:18:52.119Z,95216.07
2018-07-21T16:21:23.950Z,95220.36
2018-07-21T16:23:53.989Z,95216.13
2018-07-21T16:26:24.697Z,95216.66
2018-07-21T16:28:54.753Z,95214.65
2018-07-21T16:31:24.838Z,95205.81
2018-07-21T16:33:56.237Z,95211.84
2018-07-21T16:36:26.336Z,95214.81
2018-07-21T16:38:56.421Z,95211.01
2018-07-21T16:41:26.551Z,95211.34
2018-07-21T16:43:56.636Z,95211.34
2018-07-21T16:46:26.853Z,95216.60
2018-07-21T16:48:56.906Z,95218.56
2018-07-21T16:51:27.135Z,95213.34
2018-07-21T16:53:57.183Z,95210.50
2018-07-21T16:56:29.845Z,95218.09
2018-07-21T16:59:00.455Z,95208.16
2018-07-21T17:01:30.636Z,95213.95
2018-07-21T17:04:00.745Z,95215.69
2018-07-21T17:06:30.820Z,95221.81
2018-07-21T17:09:01.048Z,95224.03
2018-07-21T17:11:31.145Z,95218.23
2018-07-21T17:14:05.480Z,95217.73
2018-07-21T17:16:35.701Z,95213.78
2018-07-21T17:19:08.641Z,95195.42
2018-07-21T17:21:38.943Z,95227.09
2018-07-21T17:24:09.124Z,95227.41
2018-07-21T17:26:39.271Z,95229.36
2018-07-21T17:29:10.580Z,95226.65
2018-07-21T17:31:40.780Z,95228.70
2018-07-21T17:34:10.982Z,95229.39
2018-07-21T17:36:41.051Z,95232.33
2018-07-21T17:39:12.391Z,95226.64
2018-07-21T17:41:42.531Z,95227.64
2018-07-21T17:44:12.704Z,95224.80
2018-07-21T17:46:42.772Z,95222.83
2018-07-21T17:49:12.890Z,95222.63
2018-07-21T17:51:42.971Z,95226.88
2018-07-21T17:54:13.110Z,95226.19
2018-07-21T17:56:43.259Z,95226.32
2018-07-21T17:59:13.393Z,95228.48
2018-07-21T18:01:43.484Z,95231.42
2018-07-21T18:04:13.605Z,95230.19
2018-07-21T18:06:43.740Z,95229.82
2018-07-21T18:09:13.853Z,95227.01
2018-07-21T18:11:43.886Z,95231.61
2018-07-21T18:14:14.718Z,95227.98
2018-07-21T18:16:44.810Z,95222.95
2018-07-21T18:19:14.878Z,95227.90
2018-07-21T18:21:44.971Z,95224.13
2018-07-21T18:24:15.046Z,95220.38
2018-07-21T18:26:45.160Z,95222.77
2018-07-21T18:29:15.333Z,95228.48
2018-07-21T18:31:45.405Z,95226.62
2018-07-21T18:34:15.578Z,95225.20
2018-07-21T18:36:45.748Z,95228.48
2018-07-21T18:39:16.214Z,95231.19
2018-07-21T18:41:46.329Z,95228.98
2018-07-21T18:44:16.366Z,95228.44
2018-07-21T18:46:46.353Z,95229.75
2018-07-21T18:49:16.364Z,95223.88
2018-07-21T18:51:46.410Z,95224.98
2018-07-21T18:54:16.499Z,95222.27
2018-07-21T18:56:46.533Z,95222.77
2018-07-21T18:59:16.560Z,95223.58
2018-07-21T19:01:46.573Z,95222.31
2018-07-21T19:04:17.417Z,95217.48
2018-07-21T19:06:47.432Z,95218.61
2018-07-21T19:09:17.463Z,95219.72
2018-07-21T19:11:52.529Z,95221.86
2018-07-21T19:14:22.554Z,95220.34
2018-07-21T19:16:52.573Z,95225.52
2018-07-21T19:19:22.628Z,95228.88
2018-07-21T19:21:52.668Z,95234.52
2018-07-21T19:24:22.868Z,95230.73
2018-07-21T19:26:57.979Z,95226.72
2018-07-21T19:29:28.011Z,95230.62
2018-07-21T19:32:03.067Z,95235.21
2018-07-21T19:34:35.208Z,95240.49
2018-07-21T19:37:09.264Z,95241.03
2018-07-21T19:39:39.435Z,95238.64
2018-07-21T19:42:09.562Z,95238.33
2018-07-21T19:44:39.697Z,95242.15
2018-07-21T19:47:09.715Z,95244.08
2018-07-21T19:49:39.786Z,95245.77
2018-07-21T19:52:09.921Z,95246.62
2018-07-21T19:54:39.991Z,95256.31
2018-07-21T19:57:10.015Z,95254.08
2018-07-21T19:59:40.109Z,95258.37
2018-07-21T20:02:10.349Z,95268.74
2018-07-21T20:04:40.474Z,95261.48
2018-07-21T20:07:10.577Z,95262.33
2018-07-21T20:09:40.258Z,95265.84
2018-07-21T20:12:10.440Z,95268.30
2018-07-21T20:14:40.492Z,95275.84
2018-07-21T20:17:10.647Z,95270.16
2018-07-21T20:19:40.486Z,95285.23
2018-07-21T20:22:10.505Z,95279.62
2018-07-21T20:24:40.591Z,95280.80
2018-07-21T20:27:10.593Z,95288.09
2018-07-21T20:29:40.623Z,95286.52
2018-07-21T20:32:10.662Z,95291.61
2018-07-21T20:34:40.790Z,95288.61
2018-07-21T20:37:10.867Z,95286.98
2018-07-21T20:39:41.049Z,95285.70
2018-07-21T20:42:11.140Z,95291.98
2018-07-21T20:44:41.191Z,95297.65
2018-07-21T20:47:11.188Z,95297.69
2018-07-21T20:49:41.220Z,95297.38
2018-07-21T20:52:11.373Z,95262.58
2018-07-21T20:54:41.456Z,95297.17
2018-07-21T20:57:11.583Z,95292.38
2018-07-21T20:59:41.642Z,95298.83
2018-07-21T21:02:11.784Z,95293.72
2018-07-21T21:04:41.868Z,95296.16
2018-07-21T21:07:12.184Z,95295.11
2018-07-21T21:09:42.271Z,95299.70
2018-07-21T21:12:12.396Z,95296.19
2018-07-21T21:14:41.966Z,95299.52
2018-07-21T21:17:12.003Z,95301.38
2018-07-21T21:19:42.066Z,95299.45
2018-07-21T21:22:12.292Z,95303.56
2018-07-21T21:24:42.371Z,95302.73
2018-07-21T21:27:12.440Z,95205.83
2018-07-21T21:29:42.426Z,95304.29
2018-07-21T21:32:12.543Z,95304.31
2018-07-21T21:34:42.594Z,95302.48
2018-07-21T21:37:12.643Z,95303.63
2018-07-21T21:39:42.305Z,95294.14
2018-07-21T21:42:12.415Z,95298.77
2018-07-21T21:44:42.473Z,95301.44
2018-07-21T21:47:12.620Z,95301.47
2018-07-21T21:49:42.831Z,95300.41
2018-07-21T21:52:12.890Z,95304.16
2018-07-21T21:54:42.954Z,95301.25
2018-07-21T21:57:12.982Z,95296.98
2018-07-21T21:59:43.027Z,95297.80
2018-07-21T22:02:13.271Z,95304.85
2018-07-21T22:04:43.310Z,95301.66
2018-07-21T22:07:13.355Z,95303.83
2018-07-21T22:09:43.473Z,95304.42
2018-07-21T22:12:13.527Z,95301.56
2018-07-21T22:14:43.566Z,95306.13
2018-07-21T22:17:13.682Z,95302.69
2018-07-21T22:19:43.714Z,95301.17
2018-07-21T22:22:13.798Z,95307.14
2018-07-21T22:24:43.868Z,95302.55
2018-07-21T22:27:13.910Z,95301.20
2018-07-21T22:29:44.432Z,95298.58
2018-07-21T22:32:14.056Z,95299.70
2018-07-21T22:34:44.058Z,95303.75
2018-07-21T22:37:13.709Z,95295.73
2018-07-21T22:39:43.753Z,95306.03
2018-07-21T22:42:13.794Z,95308.09
2018-07-21T22:44:43.826Z,95298.80
2018-07-21T22:47:13.864Z,95302.37
2018-07-21T22:49:43.926Z,95303.40
2018-07-21T22:52:13.947Z,95300.95
2018-07-21T22:54:43.952Z,95298.23
2018-07-21T22:57:13.978Z,95294.75
2018-07-21T22:59:43.959Z,95289.40
2018-07-21T23:02:14.082Z,95295.03
2018-07-21T23:04:44.105Z,95296.14
2018-07-21T23:07:14.126Z,95289.64
2018-07-21T23:09:44.131Z,95294.20
2018-07-21T23:12:14.190Z,95285.30
2018-07-21T23:14:44.158Z,95287.53
2018-07-21T23:17:14.223Z,95285.55
2018-07-21T23:19:44.188Z,95288.29
2018-07-21T23:22:14.285Z,95281.20
2018-07-21T23:24:44.294Z,95289.30
2018-07-21T23:27:14.507Z,95284.47
2018-07-21T23:29:44.486Z,95286.38
2018-07-21T23:32:15.613Z,95282.31
2018-07-21T23:34:45.604Z,95284.27
2018-07-21T23:37:15.685Z,95287.02
2018-07-21T23:39:45.732Z,95286.19
2018-07-21T23:42:15.754Z,95285.39
2018-07-21T23:44:45.743Z,95287.06
2018-07-21T23:47:15.746Z,95286.56
2018-07-21T23:49:45.726Z,95285.97
2018-07-21T23:52:15.761Z,95282.74
2018-07-21T23:54:45.817Z,95284.36
2018-07-21T23:57:15.884Z,95285.39
2018-07-21T23:59:45.949Z,95277.86
